Time;durP1;ratioP1;P1;durP2;ratioP2;P2;SDS_P1;SDS_P2;PMS_P1;PMS_P2;Temp;Humidity;BMP_temperature;BMP_pressure;BME280_temperature;BME280_humidity;BME280_pressure;Samples;Min_cycle;Max_cycle;Signal;HPM_P1;HPM_P2
2021/12/22 00:02:08;;;;;;;;;;;;;;;;;;5048269;28;19966;-80
2021/12/22 00:04:39;;;;;;;;;;;;;;;;;;5054677;28;20353;-78
2021/12/22 00:07:04;;;;;;;;;;;;;;;;;;5051943;28;19913;-80
2021/12/22 00:09:30;;;;;;;;;;;;;;;;;;5054384;28;20423;-82
2021/12/22 00:11:55;;;;;;;;;;;;;;;;;;5052668;28;19913;-78
2021/12/22 00:14:20;;;;;;;;;;;;;;;;;;5049212;28;20011;-79
2021/12/22 00:16:46;;;;;;;;;;;;;;;;;;5054300;28;20292;-79
2021/12/22 00:19:11;;;;;;;;;;;;;;;;;;5052050;28;20331;-78
2021/12/22 00:21:36;;;;;;;;;;;;;;;;;;5052790;28;19931;-79
2021/12/22 00:24:02;;;;;;;;;;;;;;;;;;5053884;28;19935;-78
2021/12/22 00:26:27;;;;;;;;;;;;;;;;;;5051247;28;19920;-78
2021/12/22 00:28:53;;;;;;;;;;;;;;;;;;5052584;28;19967;-79
2021/12/22 00:31:20;;;;;;;;;;;;;;;;;;5050928;28;19920;-78
2021/12/22 00:33:50;;;;;;;;;;;;;;;;;;5045604;28;19920;-78
2021/12/22 00:36:17;;;;;;;;;;;;;;;;;;5046258;28;19957;-78
2021/12/22 00:38:43;;;;;;;;;;;;;;;;;;5050693;28;20012;-79
2021/12/22 00:41:08;;;;;;;;;;;;;;;;;;5076598;28;20022;-77
2021/12/22 00:43:41;;;;;;;;;;;;;;;;;;5052599;28;20276;-77
2021/12/22 00:46:12;;;;;;;;;;;;;;;;;;5074114;28;19920;-77
2021/12/22 00:48:37;;;;;;;;;;;;;;;;;;5047615;28;20408;-77
2021/12/22 00:51:03;;;;;;;;;;;;;;;;;;5052042;28;19912;-79
2021/12/22 00:53:30;;;;;;;;;;;;;;;;;;5051646;28;20239;-79
2021/12/22 00:55:55;;;;;;;;;;;;;;;;;;5049187;28;20274;-80
2021/12/22 00:58:23;;;;;;;;;;;;;;;;;;5047209;28;20066;-77
2021/12/22 01:00:49;;;;;;;;;;;;;;;;;;5050506;28;19916;-80
2021/12/22 01:03:15;;;;;;;;;;;;;;;;;;5048037;28;20015;-78
2021/12/22 01:05:40;;;;;;;;;;;;;;;;;;5051139;28;19916;-79
2021/12/22 01:08:06;;;;;;;;;;;;;;;;;;5049758;28;19913;-79
2021/12/22 01:10:32;;;;;;;;;;;;;;;;;;5051081;28;19912;-80
2021/12/22 01:12:58;;;;;;;;;;;;;;;;;;5049999;28;19935;-78
2021/12/22 01:15:26;;;;;;;;;;;;;;;;;;5048532;28;19936;-78
2021/12/22 01:18:00;;;;;;;;;;;;;;;;;;5050093;28;20022;-79
2021/12/22 01:20:34;;;;;;;;;;;;;;;;;;5070016;28;20311;-78
2021/12/22 01:23:03;;;;;;;;;;;;;;;;;;5078310;28;20288;-79
2021/12/22 01:25:30;;;;;;;;;;;;;;;;;;5048061;28;19941;-79
2021/12/22 01:27:55;;;;;;;;;;;;;;;;;;5070780;28;19996;-78
2021/12/22 01:30:22;;;;;;;;;;;;;;;;;;5047492;28;19978;-79
2021/12/22 01:32:49;;;;;;;;;;;;;;;;;;5045306;28;20285;-78
2021/12/22 01:35:16;;;;;;;;;;;;;;;;;;5046496;28;19924;-79
2021/12/22 01:37:41;;;;;;;;;;;;;;;;;;5047965;28;19912;-79
2021/12/22 01:40:08;;;;;;;;;;;;;;;;;;5082086;28;20395;-77
2021/12/22 01:42:33;;;;;;;;;;;;;;;;;;5076119;28;19938;-78
2021/12/22 01:50:30;;;;;;;;;;;;;;;;;;5046532;28;20378;-79
2021/12/22 01:52:55;;;;;;;;;;;;;;;;;;5050891;28;19912;-79
2021/12/22 01:55:32;;;;;;;;;;;;;;;;;;5049711;28;19912;-80
2021/12/22 01:57:59;;;;;;;;;;;;;;;;;;5048341;28;19991;-80
2021/12/22 02:00:24;;;;;;;;;;;;;;;;;;5049653;28;19960;-80
2021/12/22 02:02:49;;;;;;;;;;;;;;;;;;5045746;28;20407;-81
2021/12/22 02:05:15;;;;;;;;;;;;;;;;;;5054203;28;20398;-78
2021/12/22 02:07:40;;;;;;;;;;;;;;;;;;5057442;28;19919;-77
2021/12/22 02:10:35;;;;;;;;;;;;;;;;;;5059651;28;20391;-79
2021/12/22 02:12:58;;;;;;;;;;;;;;;;;;5058149;28;19912;-78
2021/12/22 02:15:23;;;;;;;;;;;;;;;;;;5055542;28;19966;-78
2021/12/22 02:17:49;;;;;;;;;;;;;;;;;;5052016;28;19921;-79
2021/12/22 02:20:15;;;;;;;;;;;;;;;;;;5056207;28;20351;-77
2021/12/22 02:22:42;;;;;;;;;;;;;;;;;;5053740;28;20012;-79
2021/12/22 02:25:15;;;;;;;;;;;;;;;;;;5053274;28;19973;-80
2021/12/22 02:27:50;;;;;;;;;;;;;;;;;;5053896;28;19913;-78
2021/12/22 02:30:23;;;;;;;;;;;;;;;;;;5058286;28;19913;-77
2021/12/22 02:36:06;;;;;;;;;;;;;;;;;;5057395;28;19912;-77
2021/12/22 02:38:17;;;;;;;;;;;;;;;;;;5057484;28;19912;-80
2021/12/22 02:40:44;;;;;;;;;;;;;;;;;;5052797;28;20360;-80
2021/12/22 02:43:10;;;;;;;;;;;;;;;;;;5083761;28;19920;-78
2021/12/22 02:45:36;;;;;;;;;;;;;;;;;;5057253;28;19920;-79
2021/12/22 02:48:02;;;;;;;;;;;;;;;;;;5055493;28;19939;-77
2021/12/22 02:50:27;;;;;;;;;;;;;;;;;;5055845;28;19924;-78
2021/12/22 02:53:04;;;;;;;;;;;;;;;;;;5052771;28;20055;-79
2021/12/22 02:55:42;;;;;;;;;;;;;;;;;;5052847;28;20283;-81
2021/12/22 02:58:08;;;;;;;;;;;;;;;;;;5057218;28;20333;-79
2021/12/22 03:00:48;;;;;;;;;;;;;;;;;;5058244;28;20219;-79
2021/12/22 03:04:02;;;;;;;;;;;;;;;;;;5055120;28;19922;-80
2021/12/22 03:06:06;;;;;;;;;;;;;;;;;;5049214;28;20380;-81
2021/12/22 03:08:32;;;;;;;;;;;;;;;;;;5078958;28;19924;-80
2021/12/22 03:10:57;;;;;;;;;;;;;;;;;;5070091;28;19921;-78
2021/12/22 03:13:25;;;;;;;;;;;;;;;;;;5073189;28;20368;-79
2021/12/22 03:15:51;;;;;;;;;;;;;;;;;;5070888;28;19920;-78
2021/12/22 03:18:17;;;;;;;;;;;;;;;;;;5053739;28;19916;-79
2021/12/22 03:20:44;;;;;;;;;;;;;;;;;;5051411;28;19920;-80
2021/12/22 03:23:10;;;;;;;;;;;;;;;;;;5055063;28;19916;-79
2021/12/22 03:25:37;;;;;;;;;;;;;;;;;;5076750;28;19962;-81
2021/12/22 03:28:03;;;;;;;;;;;;;;;;;;5053890;28;19912;-79
2021/12/22 03:30:29;;;;;;;;;;;;;;;;;;5054035;28;19921;-79
2021/12/22 03:32:55;;;;;;;;;;;;;;;;;;5073175;28;19920;-79
2021/12/22 03:35:21;;;;;;;;;;;;;;;;;;5054024;28;19981;-79
2021/12/22 03:37:50;;;;;;;;;;;;;;;;;;5054731;28;20012;-80
2021/12/22 03:40:15;;;;;;;;;;;;;;;;;;5073911;28;19912;-81
2021/12/22 03:42:41;;;;;;;;;;;;;;;;;;5049928;28;20433;-81
2021/12/22 03:45:06;;;;;;;;;;;;;;;;;;5055322;28;19939;-80
2021/12/22 03:47:32;;;;;;;;;;;;;;;;;;5058052;28;20276;-81
2021/12/22 03:49:57;;;;;;;;;;;;;;;;;;5056091;28;20379;-81
2021/12/22 03:52:25;;;;;;;;;;;;;;;;;;5055838;28;19913;-80
2021/12/22 03:54:54;;;;;;;;;;;;;;;;;;5052541;28;19943;-81
2021/12/22 03:57:20;;;;;;;;;;;;;;;;;;5051394;28;19960;-80
2021/12/22 03:59:45;;;;;;;;;;;;;;;;;;5054224;28;19913;-80
2021/12/22 04:02:14;;;;;;;;;;;;;;;;;;5055945;28;19964;-80
2021/12/22 04:04:40;;;;;;;;;;;;;;;;;;5058924;28;20293;-79
2021/12/22 04:07:05;;;;;;;;;;;;;;;;;;5057697;28;20015;-79
2021/12/22 04:09:30;;;;;;;;;;;;;;;;;;5061404;28;20324;-78
2021/12/22 04:11:56;;;;;;;;;;;;;;;;;;5062065;28;19913;-80
2021/12/22 04:14:21;;;;;;;;;;;;;;;;;;5074673;28;19980;-80
2021/12/22 04:16:46;;;;;;;;;;;;;;;;;;5062904;28;19965;-80
2021/12/22 04:19:11;;;;;;;;;;;;;;;;;;5057450;28;20238;-78
2021/12/22 04:21:37;;;;;;;;;;;;;;;;;;5057213;28;19995;-79
2021/12/22 04:24:02;;;;;;;;;;;;;;;;;;5060202;28;19916;-80
2021/12/22 04:26:31;;;;;;;;;;;;;;;;;;5059825;28;19947;-79
2021/12/22 04:28:56;;;;;;;;;;;;;;;;;;5051978;28;19912;-78
2021/12/22 04:31:21;;;;;;;;;;;;;;;;;;5049231;28;19916;-80
2021/12/22 04:33:47;;;;;;;;;;;;;;;;;;5051149;28;19917;-78
2021/12/22 04:36:12;;;;;;;;;;;;;;;;;;5052612;28;20012;-78
2021/12/22 04:38:40;;;;;;;;;;;;;;;;;;5048685;28;19916;-78
2021/12/22 04:41:05;;;;;;;;;;;;;;;;;;5045951;28;19912;-77
2021/12/22 04:43:31;;;;;;;;;;;;;;;;;;5047221;28;19917;-80
2021/12/22 04:45:56;;;;;;;;;;;;;;;;;;5056349;28;19911;-77
2021/12/22 04:48:21;;;;;;;;;;;;;;;;;;5064745;28;19916;-78
2021/12/22 04:50:47;;;;;;;;;;;;;;;;;;5047684;28;19984;-78
2021/12/22 04:53:18;;;;;;;;;;;;;;;;;;5050224;28;20244;-79
2021/12/22 04:55:44;;;;;;;;;;;;;;;;;;5076030;28;19912;-78
2021/12/22 04:58:09;;;;;;;;;;;;;;;;;;5055276;28;19916;-79
2021/12/22 05:00:36;;;;;;;;;;;;;;;;;;5048014;28;19916;-81
2021/12/22 05:03:02;;;;;;;;;;;;;;;;;;5072135;28;19917;-80
2021/12/22 05:05:27;;;;;;;;;;;;;;;;;;5052850;28;19926;-79
2021/12/22 05:07:53;;;;;;;;;;;;;;;;;;5049321;28;19994;-78
2021/12/22 05:10:19;;;;;;;;;;;;;;;;;;5053961;28;19935;-78
2021/12/22 05:12:47;;;;;;;;;;;;;;;;;;5069637;28;19959;-78
2021/12/22 05:15:13;;;;;;;;;;;;;;;;;;5049486;28;20418;-79
2021/12/22 05:20:10;;;;;;;;;;;;;;;;;;5051511;28;19913;-79
2021/12/22 05:22:36;;;;;;;;;;;;;;;;;;5051297;28;20399;-80
2021/12/22 05:25:02;;;;;;;;;;;;;;;;;;5071472;28;19916;-79
2021/12/22 05:27:28;;;;;;;;;;;;;;;;;;5045281;28;19932;-80
2021/12/22 05:29:54;;;;;;;;;;;;;;;;;;5047654;28;20291;-81
2021/12/22 05:32:26;;;;;;;;;;;;;;;;;;5052166;28;19916;-82
2021/12/22 05:34:53;;;;;;;;;;;;;;;;;;5046582;28;19923;-80
2021/12/22 05:37:18;;;;;;;;;;;;;;;;;;5048081;28;19913;-81
2021/12/22 05:39:44;;;;;;;;;;;;;;;;;;5054198;28;19974;-79
2021/12/22 05:42:09;;;;;;;;;;;;;;;;;;5059740;28;19936;-76
2021/12/22 05:44:37;;;;;;;;;;;;;;;;;;5049034;28;19913;-77
2021/12/22 05:47:02;;;;;;;;;;;;;;;;;;5051563;28;19913;-79
2021/12/22 05:49:27;;;;;;;;;;;;;;;;;;5049174;28;19974;-78
2021/12/22 05:51:53;;;;;;;;;;;;;;;;;;5048560;28;20011;-80
2021/12/22 05:54:18;;;;;;;;;;;;;;;;;;5049530;28;19916;-79
2021/12/22 05:56:46;;;;;;;;;;;;;;;;;;5047004;28;19923;-77
2021/12/22 05:59:11;;;;;;;;;;;;;;;;;;5051009;28;19982;-78
2021/12/22 06:01:37;;;;;;;;;;;;;;;;;;5047268;28;19916;-78
2021/12/22 06:04:03;;;;;;;;;;;;;;;;;;5051680;28;19916;-78
2021/12/22 06:06:31;;;;;;;;;;;;;;;;;;5046515;28;19919;-78
2021/12/22 06:08:57;;;;;;;;;;;;;;;;;;5045356;28;19970;-78
2021/12/22 06:11:22;;;;;;;;;;;;;;;;;;5051374;28;19920;-78
2021/12/22 06:13:50;;;;;;;;;;;;;;;;;;5053876;28;19928;-78
2021/12/22 06:16:16;;;;;;;;;;;;;;;;;;5055915;28;19936;-78
2021/12/22 06:18:44;;;;;;;;;;;;;;;;;;5050068;28;19966;-78
2021/12/22 06:21:13;;;;;;;;;;;;;;;;;;5043663;28;19951;-80
2021/12/22 06:23:38;;;;;;;;;;;;;;;;;;5045552;28;19920;-77
2021/12/22 06:26:04;;;;;;;;;;;;;;;;;;5050215;28;19928;-77
2021/12/22 06:28:29;;;;;;;;;;;;;;;;;;5073315;28;19913;-77
2021/12/22 06:30:55;;;;;;;;;;;;;;;;;;5047317;28;20003;-77
2021/12/22 06:33:20;;;;;;;;;;;;;;;;;;5050243;28;19916;-77
2021/12/22 06:35:49;;;;;;;;;;;;;;;;;;5048827;28;20427;-78
2021/12/22 06:38:15;;;;;;;;;;;;;;;;;;5049142;28;19913;-78
2021/12/22 06:40:43;;;;;;;;;;;;;;;;;;5048002;28;20434;-75
2021/12/22 06:43:09;;;;;;;;;;;;;;;;;;5046156;28;19916;-75
2021/12/22 06:45:36;;;;;;;;;;;;;;;;;;5065424;28;20407;-75
2021/12/22 06:48:02;;;;;;;;;;;;;;;;;;5043227;28;19928;-76
2021/12/22 06:50:29;;;;;;;;;;;;;;;;;;5045005;28;20308;-75
2021/12/22 06:52:55;;;;;;;;;;;;;;;;;;5050744;28;19943;-78
2021/12/22 06:55:20;;;;;;;;;;;;;;;;;;5049924;28;19916;-79
2021/12/22 06:57:45;;;;;;;;;;;;;;;;;;5050457;28;20327;-76
2021/12/22 07:00:12;;;;;;;;;;;;;;;;;;5051811;28;20040;-77
2021/12/22 07:02:38;;;;;;;;;;;;;;;;;;5052239;28;20050;-77
2021/12/22 07:05:05;;;;;;;;;;;;;;;;;;5047978;28;20419;-77
2021/12/22 07:07:32;;;;;;;;;;;;;;;;;;5048605;28;19912;-76
2021/12/22 07:09:58;;;;;;;;;;;;;;;;;;5047549;28;20376;-77
2021/12/22 07:12:23;;;;;;;;;;;;;;;;;;5051757;28;19926;-78
2021/12/22 07:14:49;;;;;;;;;;;;;;;;;;5075777;28;20383;-78
2021/12/22 07:17:14;;;;;;;;;;;;;;;;;;5052929;28;19919;-79
2021/12/22 07:19:39;;;;;;;;;;;;;;;;;;5055722;28;19912;-81
2021/12/22 07:22:05;;;;;;;;;;;;;;;;;;5053800;28;20007;-76
2021/12/22 07:24:31;;;;;;;;;;;;;;;;;;5049494;28;20003;-76
2021/12/22 07:26:56;;;;;;;;;;;;;;;;;;5049855;28;20380;-77
2021/12/22 07:29:26;;;;;;;;;;;;;;;;;;5045135;28;19921;-77
2021/12/22 07:31:51;;;;;;;;;;;;;;;;;;5047941;28;19923;-76
2021/12/22 07:34:24;;;;;;;;;;;;;;;;;;5050499;28;19916;-77
2021/12/22 07:36:59;;;;;;;;;;;;;;;;;;5049116;28;19971;-77
2021/12/22 07:39:24;;;;;;;;;;;;;;;;;;5049895;28;19923;-77
2021/12/22 07:41:50;;;;;;;;;;;;;;;;;;5071198;28;19928;-77
2021/12/22 07:44:16;;;;;;;;;;;;;;;;;;5047177;28;19917;-77
2021/12/22 07:46:41;;;;;;;;;;;;;;;;;;5048527;28;19952;-77
2021/12/22 07:49:06;;;;;;;;;;;;;;;;;;5052067;28;19954;-77
2021/12/22 07:51:34;;;;;;;;;;;;;;;;;;5054480;28;19916;-76
2021/12/22 07:54:00;;;;;;;;;;;;;;;;;;5069775;28;19920;-75
2021/12/22 07:56:26;;;;;;;;;;;;;;;;;;5055291;28;19946;-76
2021/12/22 07:58:53;;;;;;;;;;;;;;;;;;5051412;28;19916;-77
2021/12/22 08:01:19;;;;;;;;;;;;;;;;;;5050741;28;19920;-76
2021/12/22 08:03:44;;;;;;;;;;;;;;;;;;5046763;28;19923;-76
2021/12/22 08:06:10;;;;;;;;;;;;;;;;;;5041292;28;20411;-77
2021/12/22 08:08:37;;;;;;;;;;;;;;;;;;5055335;28;20128;-80
2021/12/22 08:11:03;;;;;;;;;;;;;;;;;;5047635;28;19913;-78
2021/12/22 08:13:28;;;;;;;;;;;;;;;;;;5049060;28;19912;-76
2021/12/22 08:15:56;;;;;;;;;;;;;;;;;;5047690;28;19916;-77
2021/12/22 08:18:21;;;;;;;;;;;;;;;;;;5046283;28;19913;-76
2021/12/22 08:20:46;;;;;;;;;;;;;;;;;;5046204;28;20490;-76
2021/12/22 08:23:12;;;;;;;;;;;;;;;;;;5049359;28;19932;-76
2021/12/22 08:25:38;;;;;;;;;;;;;;;;;;5046271;28;20372;-76
2021/12/22 08:28:06;;;;;;;;;;;;;;;;;;5048920;28;20191;-78
2021/12/22 08:30:32;;;;;;;;;;;;;;;;;;5046852;28;19916;-76
2021/12/22 08:32:59;;;;;;;;;;;;;;;;;;5045265;28;19913;-77
2021/12/22 08:35:26;;;;;;;;;;;;;;;;;;5048092;28;19917;-76
2021/12/22 08:40:35;;;;;;;;;;;;;;;;;;5046418;28;20540;-77
2021/12/22 08:43:00;;;;;;;;;;;;;;;;;;5048593;28;19971;-81
2021/12/22 08:45:25;;;;;;;;;;;;;;;;;;5046712;28;20354;-77
2021/12/22 08:47:53;;;;;;;;;;;;;;;;;;5053958;28;20387;-81
2021/12/22 08:50:19;;;;;;;;;;;;;;;;;;5046176;28;19923;-77
2021/12/22 08:52:47;;;;;;;;;;;;;;;;;;5043926;28;19917;-76
2021/12/22 08:55:12;;;;;;;;;;;;;;;;;;5044605;28;19956;-77
2021/12/22 08:57:38;;;;;;;;;;;;;;;;;;5043201;28;20308;-75
2021/12/22 09:00:09;;;;;;;;;;;;;;;;;;5047872;28;19930;-76
2021/12/22 09:02:35;;;;;;;;;;;;;;;;;;5046390;28;19991;-76
2021/12/22 09:05:01;;;;;;;;;;;;;;;;;;5041936;28;19917;-77
2021/12/22 09:07:26;;;;;;;;;;;;;;;;;;5044753;28;19917;-77
2021/12/22 09:09:52;;;;;;;;;;;;;;;;;;5047059;28;19924;-76
2021/12/22 09:12:17;;;;;;;;;;;;;;;;;;5045294;28;19920;-76
2021/12/22 09:14:44;;;;;;;;;;;;;;;;;;5047075;28;19912;-77
2021/12/22 09:17:12;;;;;;;;;;;;;;;;;;5071108;28;20269;-76
2021/12/22 09:19:37;;;;;;;;;;;;;;;;;;5049863;28;19929;-76
2021/12/22 09:22:03;;;;;;;;;;;;;;;;;;5051286;28;20053;-76
2021/12/22 09:24:29;;;;;;;;;;;;;;;;;;5045851;28;19956;-76
2021/12/22 09:26:54;;;;;;;;;;;;;;;;;;5044095;28;19948;-77
2021/12/22 09:29:19;;;;;;;;;;;;;;;;;;5060604;28;19912;-77
2021/12/22 09:31:45;;;;;;;;;;;;;;;;;;5050916;28;20091;-76
2021/12/22 09:34:10;;;;;;;;;;;;;;;;;;5045590;28;20299;-78
2021/12/22 09:36:36;;;;;;;;;;;;;;;;;;5046715;28;19990;-77
2021/12/22 09:39:04;;;;;;;;;;;;;;;;;;5048943;28;19923;-76
2021/12/22 09:41:29;;;;;;;;;;;;;;;;;;5046691;28;19996;-76
2021/12/22 09:43:56;;;;;;;;;;;;;;;;;;5044766;28;20322;-77
2021/12/22 09:46:45;;;;;;;;;;;;;;;;;;5044331;28;20387;-77
2021/12/22 09:54:41;;;;;;;;;;;;;;;;;;5046506;28;19920;-77
2021/12/22 09:57:09;;;;;;;;;;;;;;;;;;5049674;28;19912;-77
2021/12/22 09:59:35;;;;;;;;;;;;;;;;;;5042685;28;19956;-77
2021/12/22 10:02:00;;;;;;;;;;;;;;;;;;5048339;28;19959;-77
2021/12/22 10:04:27;;;;;;;;;;;;;;;;;;5046027;28;20004;-77
2021/12/22 10:06:52;;;;;;;;;;;;;;;;;;5044632;28;19936;-77
2021/12/22 10:09:22;;;;;;;;;;;;;;;;;;5045024;28;19920;-76
2021/12/22 10:11:48;;;;;;;;;;;;;;;;;;5047416;28;19952;-75
2021/12/22 10:14:17;;;;;;;;;;;;;;;;;;5045545;28;20360;-77
2021/12/22 10:16:47;;;;;;;;;;;;;;;;;;5044512;28;19912;-78
2021/12/22 10:19:12;;;;;;;;;;;;;;;;;;5067455;28;20300;-77
2021/12/22 10:21:50;;;;;;;;;;;;;;;;;;5046726;28;19970;-77
2021/12/22 10:24:15;;;;;;;;;;;;;;;;;;5044312;28;19913;-77
2021/12/22 10:26:41;;;;;;;;;;;;;;;;;;5049160;28;20465;-78
2021/12/22 10:29:07;;;;;;;;;;;;;;;;;;5044504;28;19913;-76
2021/12/22 10:31:40;;;;;;;;;;;;;;;;;;5045808;28;20007;-76
2021/12/22 10:34:09;;;;;;;;;;;;;;;;;;5076403;28;19920;-77
2021/12/22 10:36:43;;;;;;;;;;;;;;;;;;5044998;28;19912;-77
2021/12/22 10:39:15;;;;;;;;;;;;;;;;;;5054519;28;19921;-76
2021/12/22 10:41:40;;;;;;;;;;;;;;;;;;5049826;28;19916;-76
2021/12/22 10:44:07;;;;;;;;;;;;;;;;;;5051700;28;19932;-77
2021/12/22 10:46:35;;;;;;;;;;;;;;;;;;5051330;28;19917;-76
2021/12/22 10:49:14;;;;;;;;;;;;;;;;;;5054914;28;19935;-76
2021/12/22 10:51:42;;;;;;;;;;;;;;;;;;5053082;28;19956;-76
2021/12/22 10:54:10;;;;;;;;;;;;;;;;;;5052567;28;20428;-76
2021/12/22 10:56:37;;;;;;;;;;;;;;;;;;5055388;28;19912;-77
2021/12/22 10:59:02;;;;;;;;;;;;;;;;;;5069349;28;19931;-77
2021/12/22 11:01:27;;;;;;;;;;;;;;;;;;5049791;28;19925;-76
2021/12/22 11:04:01;;;;;;;;;;;;;;;;;;5049879;28;19920;-76
2021/12/22 11:06:29;;;;;;;;;;;;;;;;;;5045849;28;19940;-77
2021/12/22 11:09:05;;;;;;;;;;;;;;;;;;5048980;28;19917;-79
2021/12/22 11:11:32;;;;;;;;;;;;;;;;;;5046667;28;20316;-78
2021/12/22 11:14:02;;;;;;;;;;;;;;;;;;5056181;28;19913;-77
2021/12/22 11:16:27;;;;;;;;;;;;;;;;;;5069014;28;19930;-76
2021/12/22 11:18:52;;;;;;;;;;;;;;;;;;5056094;28;19924;-77
2021/12/22 11:21:23;;;;;;;;;;;;;;;;;;5047401;28;20054;-76
2021/12/22 11:23:48;;;;;;;;;;;;;;;;;;5047536;28;19975;-77
2021/12/22 11:26:14;;;;;;;;;;;;;;;;;;5050238;28;19963;-77
2021/12/22 11:28:40;;;;;;;;;;;;;;;;;;5052914;28;20288;-78
2021/12/22 11:31:05;;;;;;;;;;;;;;;;;;5049250;28;20062;-78
2021/12/22 11:33:31;;;;;;;;;;;;;;;;;;5050961;28;19956;-79
2021/12/22 11:35:58;;;;;;;;;;;;;;;;;;5045928;28;20395;-78
2021/12/22 11:38:25;;;;;;;;;;;;;;;;;;5047485;28;19919;-78
2021/12/22 11:40:55;;;;;;;;;;;;;;;;;;5049463;28;20287;-78
2021/12/22 11:43:21;;;;;;;;;;;;;;;;;;5049268;28;19912;-78
2021/12/22 11:45:47;;;;;;;;;;;;;;;;;;5049167;28;19919;-76
2021/12/22 11:48:12;;;;;;;;;;;;;;;;;;5052546;28;19966;-78
2021/12/22 11:50:44;;;;;;;;;;;;;;;;;;5050008;28;19916;-79
2021/12/22 11:53:09;;;;;;;;;;;;;;;;;;5052308;28;20011;-79
2021/12/22 11:55:39;;;;;;;;;;;;;;;;;;5049573;28;20376;-78
2021/12/22 11:58:13;;;;;;;;;;;;;;;;;;5048635;28;20189;-78
2021/12/22 12:00:59;;;;;;;;;;;;;;;;;;5045443;28;19943;-78
2021/12/22 12:03:26;;;;;;;;;;;;;;;;;;5053860;28;20132;-79
2021/12/22 12:06:06;;;;;;;;;;;;;;;;;;5056330;28;20352;-77
2021/12/22 12:08:33;;;;;;;;;;;;;;;;;;5049370;28;19927;-78
2021/12/22 12:10:59;;;;;;;;;;;;;;;;;;5049358;28;19931;-79
2021/12/22 12:13:36;;;;;;;;;;;;;;;;;;5048492;28;19913;-76
2021/12/22 12:22:22;;;;;;;;;;;;;;;;;;5053560;28;19927;-78
2021/12/22 12:24:47;;;;;;;;;;;;;;;;;;5049420;28;19924;-78
2021/12/22 12:27:32;;;;;;;;;;;;;;;;;;5042155;28;20356;-78
2021/12/22 12:30:00;;;;;;;;;;;;;;;;;;5046492;28;19916;-75
2021/12/22 12:32:41;;;;;;;;;;;;;;;;;;5046605;28;19912;-76
2021/12/22 12:35:18;;;;;;;;;;;;;;;;;;5049958;28;19956;-76
2021/12/22 12:38:01;;;;;;;;;;;;;;;;;;5050269;28;20269;-77
2021/12/22 12:40:45;;;;;;;;;;;;;;;;;;5048279;28;20387;-76
2021/12/22 12:43:10;;;;;;;;;;;;;;;;;;5062630;28;19919;-76
2021/12/22 12:45:53;;;;;;;;;;;;;;;;;;5046972;28;19912;-75
2021/12/22 12:48:25;;;;;;;;;;;;;;;;;;5049264;28;19987;-76
2021/12/22 12:51:09;;;;;;;;;;;;;;;;;;5045348;28;19919;-76
2021/12/22 12:53:42;;;;;;;;;;;;;;;;;;5045692;28;19923;-76
2021/12/22 12:56:08;;;;;;;;;;;;;;;;;;5045600;28;19912;-75
2021/12/22 12:58:34;;;;;;;;;;;;;;;;;;5048560;28;19934;-76
2021/12/22 13:00:59;;;;;;;;;;;;;;;;;;5047924;28;19923;-77
2021/12/22 13:03:24;;;;;;;;;;;;;;;;;;5043012;28;20260;-75
2021/12/22 13:05:50;;;;;;;;;;;;;;;;;;5046539;28;19913;-76
2021/12/22 13:08:15;;;;;;;;;;;;;;;;;;5049470;28;20029;-75
2021/12/22 13:10:44;;;;;;;;;;;;;;;;;;5044690;28;20019;-76
2021/12/22 13:13:15;;;;;;;;;;;;;;;;;;5042630;28;20423;-76
2021/12/22 13:15:49;;;;;;;;;;;;;;;;;;5046552;28;19951;-76
2021/12/22 13:18:16;;;;;;;;;;;;;;;;;;5073991;28;20292;-75
2021/12/22 13:20:42;;;;;;;;;;;;;;;;;;5048454;28;19916;-76
2021/12/22 13:23:18;;;;;;;;;;;;;;;;;;5047951;28;19920;-75
2021/12/22 13:25:45;;;;;;;;;;;;;;;;;;5043683;28;19912;-77
2021/12/22 13:28:14;;;;;;;;;;;;;;;;;;5045638;28;19913;-76
2021/12/22 13:30:44;;;;;;;;;;;;;;;;;;5047781;28;19917;-75
2021/12/22 13:33:11;;;;;;;;;;;;;;;;;;5043793;28;19912;-77
2021/12/22 13:35:49;;;;;;;;;;;;;;;;;;5049406;28;20036;-76
2021/12/22 13:38:19;;;;;;;;;;;;;;;;;;5043968;28;19958;-76
2021/12/22 13:40:50;;;;;;;;;;;;;;;;;;5043274;28;19967;-76
2021/12/22 13:43:28;;;;;;;;;;;;;;;;;;5045149;28;19912;-76
2021/12/22 13:45:56;;;;;;;;;;;;;;;;;;5043810;28;19913;-75
2021/12/22 13:48:26;;;;;;;;;;;;;;;;;;5044716;28;19958;-76
2021/12/22 13:50:53;;;;;;;;;;;;;;;;;;5046447;28;20545;-76
2021/12/22 13:53:20;;;;;;;;;;;;;;;;;;5045063;28;20007;-76
2021/12/22 13:55:46;;;;;;;;;;;;;;;;;;5044055;28;20295;-76
2021/12/22 13:58:29;;;;;;;;;;;;;;;;;;5046338;28;19913;-76
2021/12/22 14:01:14;;;;;;;;;;;;;;;;;;5046118;28;19917;-76
2021/12/22 14:03:40;;;;;;;;;;;;;;;;;;5082183;28;20311;-76
2021/12/22 14:06:07;;;;;;;;;;;;;;;;;;5044761;28;19913;-77
2021/12/22 14:08:32;;;;;;;;;;;;;;;;;;5046893;28;19959;-77
2021/12/22 14:10:57;;;;;;;;;;;;;;;;;;5047935;28;19998;-77
2021/12/22 14:13:27;;;;;;;;;;;;;;;;;;5046043;28;19919;-76
2021/12/22 14:15:53;;;;;;;;;;;;;;;;;;5042148;28;19916;-76
2021/12/22 14:18:18;;;;;;;;;;;;;;;;;;5042167;28;20381;-75
2021/12/22 14:20:43;;;;;;;;;;;;;;;;;;5041347;28;19924;-75
2021/12/22 14:23:09;;;;;;;;;;;;;;;;;;5049974;28;20187;-75
2021/12/22 14:25:36;;;;;;;;;;;;;;;;;;5045073;28;20401;-75
2021/12/22 14:28:24;;;;;;;;;;;;;;;;;;5046553;28;19916;-75
2021/12/22 14:30:50;;;;;;;;;;;;;;;;;;5043245;28;19913;-75
2021/12/22 14:33:16;;;;;;;;;;;;;;;;;;5046508;28;19942;-75
2021/12/22 14:35:43;;;;;;;;;;;;;;;;;;5048187;28;19921;-75
2021/12/22 14:38:16;;;;;;;;;;;;;;;;;;5048715;28;19960;-77
2021/12/22 14:40:50;;;;;;;;;;;;;;;;;;5042807;28;20376;-77
2021/12/22 14:43:15;;;;;;;;;;;;;;;;;;5045319;28;19916;-77
2021/12/22 14:45:40;;;;;;;;;;;;;;;;;;5043170;28;19916;-76
2021/12/22 14:48:17;;;;;;;;;;;;;;;;;;5042881;28;19919;-77
2021/12/22 14:51:02;;;;;;;;;;;;;;;;;;5067797;28;20171;-77
2021/12/22 14:53:33;;;;;;;;;;;;;;;;;;5041953;28;20355;-77
2021/12/22 14:55:59;;;;;;;;;;;;;;;;;;5043004;28;19939;-75
2021/12/22 14:58:26;;;;;;;;;;;;;;;;;;5045029;28;19973;-77
2021/12/22 15:00:51;;;;;;;;;;;;;;;;;;5044808;28;19931;-76
2021/12/22 15:03:17;;;;;;;;;;;;;;;;;;5048077;28;19912;-74
2021/12/22 15:05:50;;;;;;;;;;;;;;;;;;5047744;28;19916;-75
2021/12/22 15:08:15;;;;;;;;;;;;;;;;;;5045717;28;20186;-75
2021/12/22 15:10:41;;;;;;;;;;;;;;;;;;5045043;28;19980;-75
2021/12/22 15:13:06;;;;;;;;;;;;;;;;;;5046223;28;19912;-75
2021/12/22 15:15:33;;;;;;;;;;;;;;;;;;5050211;28;19917;-75
2021/12/22 15:18:02;;;;;;;;;;;;;;;;;;5048922;28;19981;-75
2021/12/22 15:20:27;;;;;;;;;;;;;;;;;;5050132;28;20369;-75
2021/12/22 15:22:53;;;;;;;;;;;;;;;;;;5048953;28;20074;-75
2021/12/22 15:25:18;;;;;;;;;;;;;;;;;;5046437;28;20293;-75
2021/12/22 15:27:44;;;;;;;;;;;;;;;;;;5053715;28;19959;-75
2021/12/22 15:30:09;;;;;;;;;;;;;;;;;;5045685;28;19931;-75
2021/12/22 15:32:35;;;;;;;;;;;;;;;;;;5047941;28;19927;-75
2021/12/22 15:35:01;;;;;;;;;;;;;;;;;;5047842;28;19961;-75
2021/12/22 15:37:29;;;;;;;;;;;;;;;;;;5052466;28;19986;-75
2021/12/22 15:39:55;;;;;;;;;;;;;;;;;;5047246;28;20291;-77
2021/12/22 15:42:20;;;;;;;;;;;;;;;;;;5054328;28;19912;-75
2021/12/22 15:44:45;;;;;;;;;;;;;;;;;;5048243;28;19912;-75
2021/12/22 15:47:11;;;;;;;;;;;;;;;;;;5049609;28;20521;-75
2021/12/22 15:49:40;;;;;;;;;;;;;;;;;;5050683;28;19932;-75
2021/12/22 15:52:05;;;;;;;;;;;;;;;;;;5050165;28;19920;-75
2021/12/22 15:54:31;;;;;;;;;;;;;;;;;;5048685;28;19916;-75
2021/12/22 15:56:58;;;;;;;;;;;;;;;;;;5050601;28;19919;-75
2021/12/22 15:59:24;;;;;;;;;;;;;;;;;;5054980;28;19921;-75
2021/12/22 16:01:50;;;;;;;;;;;;;;;;;;5048299;28;19932;-75
2021/12/22 16:04:16;;;;;;;;;;;;;;;;;;5050526;28;20268;-75
2021/12/22 16:06:41;;;;;;;;;;;;;;;;;;5047922;28;19920;-75
2021/12/22 16:09:07;;;;;;;;;;;;;;;;;;5049161;28;20341;-76
2021/12/22 16:11:33;;;;;;;;;;;;;;;;;;5046898;28;19966;-76
2021/12/22 16:14:20;;;;;;;;;;;;;;;;;;5050986;28;19912;-76
2021/12/22 16:16:45;;;;;;;;;;;;;;;;;;5049132;28;19940;-76
2021/12/22 16:19:11;;;;;;;;;;;;;;;;;;5044654;28;20312;-76
2021/12/22 16:21:37;;;;;;;;;;;;;;;;;;5041945;28;19921;-76
2021/12/22 16:24:02;;;;;;;;;;;;;;;;;;5042977;28;19966;-76
2021/12/22 16:26:30;;;;;;;;;;;;;;;;;;5047886;28;20160;-76
2021/12/22 16:28:55;;;;;;;;;;;;;;;;;;5067872;28;19916;-75
2021/12/22 16:31:21;;;;;;;;;;;;;;;;;;5048858;28;20340;-76
2021/12/22 16:33:46;;;;;;;;;;;;;;;;;;5045421;28;20350;-76
2021/12/22 16:36:13;;;;;;;;;;;;;;;;;;5049176;28;19913;-76
2021/12/22 16:38:41;;;;;;;;;;;;;;;;;;5046803;28;20269;-76
2021/12/22 16:41:07;;;;;;;;;;;;;;;;;;5047428;28;19925;-76
2021/12/22 16:43:37;;;;;;;;;;;;;;;;;;5049376;28;19923;-76
2021/12/22 16:46:02;;;;;;;;;;;;;;;;;;5044555;28;19913;-76
2021/12/22 16:48:27;;;;;;;;;;;;;;;;;;5050479;28;19947;-76
2021/12/22 16:50:53;;;;;;;;;;;;;;;;;;5071027;28;20379;-76
2021/12/22 16:53:18;;;;;;;;;;;;;;;;;;5044016;28;20327;-76
2021/12/22 16:55:43;;;;;;;;;;;;;;;;;;5046666;28;19913;-76
2021/12/22 16:58:11;;;;;;;;;;;;;;;;;;5046629;28;19992;-76
2021/12/22 17:00:37;;;;;;;;;;;;;;;;;;5047981;28;19916;-76
2021/12/22 17:03:04;;;;;;;;;;;;;;;;;;5044899;28;19991;-76
2021/12/22 17:05:30;;;;;;;;;;;;;;;;;;5060173;28;19912;-76
2021/12/22 17:07:55;;;;;;;;;;;;;;;;;;5053316;28;19999;-78
2021/12/22 17:10:20;;;;;;;;;;;;;;;;;;5048326;28;19912;-78
2021/12/22 17:12:46;;;;;;;;;;;;;;;;;;5048859;28;19963;-78
2021/12/22 17:15:12;;;;;;;;;;;;;;;;;;5050893;28;19931;-77